Greater Rochester International Airport
KROC : now visible

Airfield :











YOU CAN JOIN US ON...

 
LOGIN :

Register | Disclaimer

   EN    FR    IT 

 









Legend :    VFR   Marginal VFR   IFR   Intensive IFR   Very Intensive IFR
Visi :
Ceiling :
>= 8 km
>= 3000ft
5 to 8 km
1000 to 3000 ft
1500m to 5 km
500 to 1000 ft
800 to 1500m
200 to 500 ft
< 800m
< 200 ft
Symbols :   Thunderstorms  Fog  Heavy snow  Heavy precipitations  Wind > 20 kt







- Airport Elevation : 559 ft
- IATA code : ROC


KROC - Greater Rochester International

CURRENT METAR :
  • 230854Z 24004KT 10SM BKN060 13/12 A3003 RMK AO2 SLP172 T01330117 53004

EXPIRED METARs :
  • 230754Z 25004KT 10SM SCT070 13/12 A3002 RMK AO2 SLP166 T01330117
  • 230654Z 23004KT 10SM FEW055 OVC070 14/12 A3001 RMK AO2 SLP165 T01390122

TAF KROC
Valid from the 23 at 10:00 until the 24 at 06:00 UTC


230936Z 2310/2406 24004KT P6SM BKN060
FM231300 35006KT P6SM SCT050
FM240000 35005KT P6SM FEW250
No reported NOTAMs for that airfield.



MET'MAP, your aeronautical weather chart ! - Copyright ORBIFLY December 2007 - Disclaimer

ORBIFLY MET'MAP TEAM :

Programming & Development : Alexandra Zaïnal
Concept & Development : Baudouin d'Aumeries
Co-Development & Prog : Marc-Olivier Méhu
Technical & hardware support : Manuel Goepfert

Contact : metmap@orbifly.com




SOURCES & CREDITS :

   NOAA       Earth
Advisory